sensor_id;sensor_type;location;lat;lon;timestamp;P1;durP1;ratioP1;P2;durP2;ratioP2
64842;SDS011;51310;52.198;5.422;2022-09-24T00:01:27;43.53;;;28.70;;
64842;SDS011;51310;52.198;5.422;2022-09-24T00:03:58;42.10;;;29.23;;
64842;SDS011;51310;52.198;5.422;2022-09-24T00:06:33;44.53;;;28.47;;
64842;SDS011;51310;52.198;5.422;2022-09-24T00:09:05;41.22;;;28.70;;
64842;SDS011;51310;52.198;5.422;2022-09-24T00:11:31;39.33;;;27.47;;
64842;SDS011;51310;52.198;5.422;2022-09-24T00:13:57;43.10;;;28.38;;
64842;SDS011;51310;52.198;5.422;2022-09-24T00:16:24;40.50;;;28.00;;
64842;SDS011;51310;52.198;5.422;2022-09-24T00:18:55;42.08;;;28.02;;
64842;SDS011;51310;52.198;5.422;2022-09-24T00:21:24;37.28;;;26.98;;
64842;SDS011;51310;52.198;5.422;2022-09-24T00:24:00;39.90;;;26.98;;
64842;SDS011;51310;52.198;5.422;2022-09-24T00:26:33;35.55;;;25.30;;
64842;SDS011;51310;52.198;5.422;2022-09-24T00:29:16;34.70;;;24.40;;
64842;SDS011;51310;52.198;5.422;2022-09-24T00:31:48;34.65;;;23.15;;
64842;SDS011;51310;52.198;5.422;2022-09-24T00:34:17;34.22;;;22.85;;
64842;SDS011;51310;52.198;5.422;2022-09-24T00:36:44;34.13;;;24.27;;
64842;SDS011;51310;52.198;5.422;2022-09-24T00:39:10;34.42;;;24.17;;
64842;SDS011;51310;52.198;5.422;2022-09-24T00:41:37;32.53;;;22.50;;
64842;SDS011;51310;52.198;5.422;2022-09-24T00:47:04;29.70;;;21.17;;
64842;SDS011;51310;52.198;5.422;2022-09-24T00:50:05;28.83;;;20.15;;
64842;SDS011;51310;52.198;5.422;2022-09-24T00:52:57;29.52;;;20.48;;
64842;SDS011;51310;52.198;5.422;2022-09-24T00:55:26;28.60;;;20.20;;
64842;SDS011;51310;52.198;5.422;2022-09-24T00:57:55;29.33;;;19.80;;
64842;SDS011;51310;52.198;5.422;2022-09-24T01:00:24;27.77;;;19.27;;
64842;SDS011;51310;52.198;5.422;2022-09-24T01:03:01;28.27;;;19.25;;
64842;SDS011;51310;52.198;5.422;2022-09-24T01:05:36;30.17;;;19.02;;
64842;SDS011;51310;52.198;5.422;2022-09-24T01:08:03;27.48;;;18.70;;
64842;SDS011;51310;52.198;5.422;2022-09-24T01:23:30;24.00;;;16.83;;
64842;SDS011;51310;52.198;5.422;2022-09-24T01:34:58;22.83;;;16.45;;
64842;SDS011;51310;52.198;5.422;2022-09-24T01:37:37;23.27;;;16.58;;
64842;SDS011;51310;52.198;5.422;2022-09-24T01:40:09;21.98;;;16.35;;
64842;SDS011;51310;52.198;5.422;2022-09-24T01:42:36;22.77;;;16.38;;
64842;SDS011;51310;52.198;5.422;2022-09-24T01:45:06;22.27;;;16.25;;
64842;SDS011;51310;52.198;5.422;2022-09-24T01:47:34;25.97;;;16.87;;
64842;SDS011;51310;52.198;5.422;2022-09-24T01:50:08;27.70;;;17.40;;
64842;SDS011;51310;52.198;5.422;2022-09-24T01:52:41;24.73;;;17.38;;
64842;SDS011;51310;52.198;5.422;2022-09-24T01:55:46;26.50;;;17.75;;
64842;SDS011;51310;52.198;5.422;2022-09-24T01:58:29;26.20;;;17.60;;
64842;SDS011;51310;52.198;5.422;2022-09-24T02:01:11;26.08;;;17.83;;
64842;SDS011;51310;52.198;5.422;2022-09-24T02:03:50;25.57;;;17.47;;
64842;SDS011;51310;52.198;5.422;2022-09-24T02:08:56;27.80;;;18.08;;
64842;SDS011;51310;52.198;5.422;2022-09-24T02:11:23;26.35;;;18.27;;
64842;SDS011;51310;52.198;5.422;2022-09-24T02:16:37;30.33;;;19.42;;
64842;SDS011;51310;52.198;5.422;2022-09-24T02:19:14;32.38;;;20.30;;
64842;SDS011;51310;52.198;5.422;2022-09-24T02:21:48;29.70;;;20.05;;
64842;SDS011;51310;52.198;5.422;2022-09-24T02:24:17;34.70;;;20.70;;
64842;SDS011;51310;52.198;5.422;2022-09-24T02:26:50;31.20;;;19.98;;
64842;SDS011;51310;52.198;5.422;2022-09-24T02:29:16;31.27;;;19.53;;
64842;SDS011;51310;52.198;5.422;2022-09-24T02:31:46;33.47;;;20.57;;
64842;SDS011;51310;52.198;5.422;2022-09-24T02:34:24;32.00;;;20.70;;
64842;SDS011;51310;52.198;5.422;2022-09-24T02:36:59;32.00;;;20.63;;
64842;SDS011;51310;52.198;5.422;2022-09-24T02:39:33;38.63;;;20.95;;
64842;SDS011;51310;52.198;5.422;2022-09-24T02:42:00;35.42;;;21.50;;
64842;SDS011;51310;52.198;5.422;2022-09-24T02:44:33;36.25;;;20.88;;
64842;SDS011;51310;52.198;5.422;2022-09-24T02:47:03;33.72;;;20.88;;
64842;SDS011;51310;52.198;5.422;2022-09-24T02:49:30;35.50;;;21.70;;
64842;SDS011;51310;52.198;5.422;2022-09-24T02:51:57;31.27;;;20.60;;
64842;SDS011;51310;52.198;5.422;2022-09-24T02:54:23;32.45;;;20.80;;
64842;SDS011;51310;52.198;5.422;2022-09-24T02:56:49;33.67;;;21.35;;
64842;SDS011;51310;52.198;5.422;2022-09-24T02:59:16;36.67;;;23.00;;
64842;SDS011;51310;52.198;5.422;2022-09-24T03:01:43;35.20;;;21.70;;
64842;SDS011;51310;52.198;5.422;2022-09-24T03:04:10;35.70;;;22.75;;
64842;SDS011;51310;52.198;5.422;2022-09-24T03:06:37;37.03;;;22.75;;
64842;SDS011;51310;52.198;5.422;2022-09-24T03:09:03;36.90;;;23.17;;
64842;SDS011;51310;52.198;5.422;2022-09-24T03:11:29;39.40;;;23.33;;
64842;SDS011;51310;52.198;5.422;2022-09-24T03:13:57;38.15;;;23.67;;
64842;SDS011;51310;52.198;5.422;2022-09-24T03:16:24;40.28;;;24.92;;
64842;SDS011;51310;52.198;5.422;2022-09-24T03:18:50;39.50;;;23.08;;
64842;SDS011;51310;52.198;5.422;2022-09-24T03:21:17;38.38;;;22.88;;
64842;SDS011;51310;52.198;5.422;2022-09-24T03:23:46;41.38;;;23.25;;
64842;SDS011;51310;52.198;5.422;2022-09-24T03:26:13;40.63;;;23.85;;
64842;SDS011;51310;52.198;5.422;2022-09-24T03:28:39;39.60;;;23.25;;
64842;SDS011;51310;52.198;5.422;2022-09-24T03:31:05;37.47;;;23.53;;
64842;SDS011;51310;52.198;5.422;2022-09-24T03:33:34;37.58;;;23.40;;
64842;SDS011;51310;52.198;5.422;2022-09-24T03:36:11;35.60;;;21.58;;
64842;SDS011;51310;52.198;5.422;2022-09-24T03:38:47;38.63;;;23.05;;
64842;SDS011;51310;52.198;5.422;2022-09-24T03:41:19;38.88;;;23.05;;
64842;SDS011;51310;52.198;5.422;2022-09-24T03:43:45;38.37;;;23.83;;
64842;SDS011;51310;52.198;5.422;2022-09-24T03:46:11;37.50;;;22.63;;
64842;SDS011;51310;52.198;5.422;2022-09-24T03:48:41;40.80;;;25.00;;
64842;SDS011;51310;52.198;5.422;2022-09-24T03:51:12;38.08;;;22.85;;
64842;SDS011;51310;52.198;5.422;2022-09-24T03:53:44;36.10;;;23.33;;
64842;SDS011;51310;52.198;5.422;2022-09-24T03:56:11;38.50;;;23.70;;
64842;SDS011;51310;52.198;5.422;2022-09-24T03:58:38;39.33;;;24.87;;
64842;SDS011;51310;52.198;5.422;2022-09-24T04:01:05;42.83;;;25.35;;
64842;SDS011;51310;52.198;5.422;2022-09-24T04:03:36;38.47;;;24.13;;
64842;SDS011;51310;52.198;5.422;2022-09-24T04:06:03;42.33;;;25.00;;
64842;SDS011;51310;52.198;5.422;2022-09-24T04:08:30;40.65;;;24.23;;
64842;SDS011;51310;52.198;5.422;2022-09-24T04:10:57;45.20;;;25.85;;
64842;SDS011;51310;52.198;5.422;2022-09-24T04:13:23;38.13;;;25.00;;
64842;SDS011;51310;52.198;5.422;2022-09-24T04:15:50;37.97;;;24.13;;
64842;SDS011;51310;52.198;5.422;2022-09-24T04:18:16;40.67;;;24.95;;
64842;SDS011;51310;52.198;5.422;2022-09-24T04:20:42;38.53;;;24.15;;
64842;SDS011;51310;52.198;5.422;2022-09-24T04:23:09;39.92;;;24.83;;
64842;SDS011;51310;52.198;5.422;2022-09-24T04:25:35;39.20;;;24.00;;
64842;SDS011;51310;52.198;5.422;2022-09-24T04:28:05;41.17;;;25.25;;
64842;SDS011;51310;52.198;5.422;2022-09-24T04:30:33;37.65;;;24.00;;
64842;SDS011;51310;52.198;5.422;2022-09-24T04:33:01;41.58;;;24.70;;
64842;SDS011;51310;52.198;5.422;2022-09-24T04:35:27;39.37;;;24.83;;
64842;SDS011;51310;52.198;5.422;2022-09-24T04:37:56;37.50;;;25.52;;
64842;SDS011;51310;52.198;5.422;2022-09-24T04:40:23;40.00;;;25.30;;
64842;SDS011;51310;52.198;5.422;2022-09-24T04:42:50;41.53;;;26.00;;
64842;SDS011;51310;52.198;5.422;2022-09-24T04:45:16;41.50;;;26.35;;
64842;SDS011;51310;52.198;5.422;2022-09-24T04:47:44;43.60;;;26.55;;
64842;SDS011;51310;52.198;5.422;2022-09-24T04:50:16;42.03;;;26.58;;
64842;SDS011;51310;52.198;5.422;2022-09-24T04:52:44;41.55;;;24.73;;
64842;SDS011;51310;52.198;5.422;2022-09-24T04:55:10;38.30;;;24.08;;
64842;SDS011;51310;52.198;5.422;2022-09-24T04:57:36;38.65;;;25.15;;
64842;SDS011;51310;52.198;5.422;2022-09-24T05:00:04;45.88;;;24.35;;
64842;SDS011;51310;52.198;5.422;2022-09-24T05:02:39;38.92;;;25.05;;
64842;SDS011;51310;52.198;5.422;2022-09-24T05:05:07;42.10;;;26.75;;
64842;SDS011;51310;52.198;5.422;2022-09-24T05:07:35;40.75;;;25.23;;
64842;SDS011;51310;52.198;5.422;2022-09-24T05:10:01;41.45;;;25.55;;
64842;SDS011;51310;52.198;5.422;2022-09-24T05:12:28;39.33;;;24.90;;
64842;SDS011;51310;52.198;5.422;2022-09-24T05:14:54;42.60;;;26.63;;
64842;SDS011;51310;52.198;5.422;2022-09-24T05:17:20;39.58;;;24.52;;
64842;SDS011;51310;52.198;5.422;2022-09-24T05:19:46;42.22;;;25.20;;
64842;SDS011;51310;52.198;5.422;2022-09-24T05:22:12;44.45;;;26.58;;
64842;SDS011;51310;52.198;5.422;2022-09-24T05:24:38;45.40;;;26.08;;
64842;SDS011;51310;52.198;5.422;2022-09-24T05:27:04;45.05;;;27.55;;
64842;SDS011;51310;52.198;5.422;2022-09-24T05:29:39;42.63;;;25.38;;
64842;SDS011;51310;52.198;5.422;2022-09-24T05:32:14;42.28;;;25.58;;
64842;SDS011;51310;52.198;5.422;2022-09-24T05:34:43;39.63;;;24.77;;
64842;SDS011;51310;52.198;5.422;2022-09-24T05:37:10;44.97;;;27.13;;
64842;SDS011;51310;52.198;5.422;2022-09-24T05:39:38;42.63;;;26.13;;
64842;SDS011;51310;52.198;5.422;2022-09-24T05:42:04;40.75;;;26.20;;
64842;SDS011;51310;52.198;5.422;2022-09-24T05:44:32;42.28;;;25.70;;
64842;SDS011;51310;52.198;5.422;2022-09-24T05:46:58;42.30;;;25.52;;
64842;SDS011;51310;52.198;5.422;2022-09-24T05:49:24;39.55;;;24.63;;
64842;SDS011;51310;52.198;5.422;2022-09-24T05:51:50;40.22;;;24.58;;
64842;SDS011;51310;52.198;5.422;2022-09-24T05:54:16;40.60;;;24.90;;
64842;SDS011;51310;52.198;5.422;2022-09-24T05:56:43;42.28;;;25.20;;
64842;SDS011;51310;52.198;5.422;2022-09-24T05:59:10;41.87;;;25.30;;
64842;SDS011;51310;52.198;5.422;2022-09-24T06:01:36;46.67;;;25.83;;
64842;SDS011;51310;52.198;5.422;2022-09-24T06:04:02;39.50;;;25.27;;
64842;SDS011;51310;52.198;5.422;2022-09-24T06:06:28;41.63;;;24.92;;
64842;SDS011;51310;52.198;5.422;2022-09-24T06:08:54;41.88;;;25.60;;
64842;SDS011;51310;52.198;5.422;2022-09-24T06:11:20;44.13;;;25.65;;
64842;SDS011;51310;52.198;5.422;2022-09-24T06:13:47;39.05;;;24.77;;
64842;SDS011;51310;52.198;5.422;2022-09-24T06:16:15;39.25;;;23.88;;
64842;SDS011;51310;52.198;5.422;2022-09-24T06:18:42;41.55;;;24.80;;
64842;SDS011;51310;52.198;5.422;2022-09-24T06:21:10;43.13;;;25.85;;
64842;SDS011;51310;52.198;5.422;2022-09-24T06:23:39;41.03;;;25.33;;
64842;SDS011;51310;52.198;5.422;2022-09-24T06:26:06;37.63;;;23.20;;
64842;SDS011;51310;52.198;5.422;2022-09-24T06:28:36;39.38;;;23.80;;
64842;SDS011;51310;52.198;5.422;2022-09-24T06:31:02;38.33;;;23.43;;
64842;SDS011;51310;52.198;5.422;2022-09-24T06:33:30;37.78;;;23.45;;
64842;SDS011;51310;52.198;5.422;2022-09-24T06:36:00;39.03;;;23.90;;
64842;SDS011;51310;52.198;5.422;2022-09-24T06:38:28;38.65;;;24.13;;
64842;SDS011;51310;52.198;5.422;2022-09-24T06:40:59;35.03;;;22.52;;
64842;SDS011;51310;52.198;5.422;2022-09-24T06:43:28;38.72;;;23.75;;
64842;SDS011;51310;52.198;5.422;2022-09-24T06:45:56;37.35;;;23.23;;
64842;SDS011;51310;52.198;5.422;2022-09-24T06:48:24;40.93;;;24.50;;
64842;SDS011;51310;52.198;5.422;2022-09-24T06:50:52;39.03;;;23.05;;
64842;SDS011;51310;52.198;5.422;2022-09-24T06:53:21;39.28;;;23.92;;
64842;SDS011;51310;52.198;5.422;2022-09-24T06:55:47;34.87;;;21.30;;
64842;SDS011;51310;52.198;5.422;2022-09-24T06:58:15;37.13;;;22.88;;
64842;SDS011;51310;52.198;5.422;2022-09-24T07:00:49;35.53;;;22.85;;
64842;SDS011;51310;52.198;5.422;2022-09-24T07:03:26;32.17;;;21.17;;
64842;SDS011;51310;52.198;5.422;2022-09-24T07:05:58;35.78;;;22.85;;
64842;SDS011;51310;52.198;5.422;2022-09-24T07:08:27;33.08;;;21.25;;
64842;SDS011;51310;52.198;5.422;2022-09-24T07:10:53;33.15;;;21.52;;
64842;SDS011;51310;52.198;5.422;2022-09-24T07:13:19;30.60;;;20.67;;
64842;SDS011;51310;52.198;5.422;2022-09-24T07:15:46;34.65;;;22.08;;
64842;SDS011;51310;52.198;5.422;2022-09-24T07:18:14;30.15;;;20.83;;
64842;SDS011;51310;52.198;5.422;2022-09-24T07:20:41;37.78;;;21.08;;
64842;SDS011;51310;52.198;5.422;2022-09-24T07:23:08;31.45;;;20.98;;
64842;SDS011;51310;52.198;5.422;2022-09-24T07:25:37;29.45;;;20.17;;
64842;SDS011;51310;52.198;5.422;2022-09-24T07:28:04;32.17;;;20.75;;
64842;SDS011;51310;52.198;5.422;2022-09-24T07:30:36;31.27;;;20.80;;
64842;SDS011;51310;52.198;5.422;2022-09-24T07:33:03;30.25;;;19.58;;
64842;SDS011;51310;52.198;5.422;2022-09-24T07:35:31;30.27;;;19.42;;
64842;SDS011;51310;52.198;5.422;2022-09-24T07:38:02;29.98;;;19.98;;
64842;SDS011;51310;52.198;5.422;2022-09-24T07:40:32;31.77;;;21.25;;
64842;SDS011;51310;52.198;5.422;2022-09-24T07:42:59;29.88;;;19.88;;
64842;SDS011;51310;52.198;5.422;2022-09-24T07:45:26;30.87;;;20.80;;
64842;SDS011;51310;52.198;5.422;2022-09-24T07:48:00;30.98;;;21.05;;
64842;SDS011;51310;52.198;5.422;2022-09-24T07:50:30;27.15;;;18.27;;
64842;SDS011;51310;52.198;5.422;2022-09-24T07:53:02;28.80;;;19.83;;
64842;SDS011;51310;52.198;5.422;2022-09-24T07:55:30;27.30;;;17.65;;
64842;SDS011;51310;52.198;5.422;2022-09-24T07:57:56;24.95;;;17.00;;
64842;SDS011;51310;52.198;5.422;2022-09-24T08:00:22;25.38;;;16.95;;
64842;SDS011;51310;52.198;5.422;2022-09-24T08:02:50;25.70;;;16.95;;
64842;SDS011;51310;52.198;5.422;2022-09-24T08:05:17;24.95;;;16.35;;
64842;SDS011;51310;52.198;5.422;2022-09-24T08:07:50;29.02;;;17.55;;
64842;SDS011;51310;52.198;5.422;2022-09-24T08:10:19;27.17;;;18.23;;
64842;SDS011;51310;52.198;5.422;2022-09-24T08:12:46;28.15;;;18.38;;
64842;SDS011;51310;52.198;5.422;2022-09-24T08:15:12;25.42;;;17.45;;
64842;SDS011;51310;52.198;5.422;2022-09-24T08:17:39;24.70;;;17.25;;
64842;SDS011;51310;52.198;5.422;2022-09-24T08:20:06;24.95;;;16.58;;
64842;SDS011;51310;52.198;5.422;2022-09-24T08:22:33;27.60;;;17.23;;
64842;SDS011;51310;52.198;5.422;2022-09-24T08:24:59;24.77;;;16.23;;
64842;SDS011;51310;52.198;5.422;2022-09-24T08:27:27;25.88;;;17.13;;
64842;SDS011;51310;52.198;5.422;2022-09-24T08:29:53;26.23;;;16.92;;
64842;SDS011;51310;52.198;5.422;2022-09-24T08:32:20;24.07;;;16.40;;
64842;SDS011;51310;52.198;5.422;2022-09-24T08:34:46;27.38;;;17.92;;
64842;SDS011;51310;52.198;5.422;2022-09-24T08:37:12;26.75;;;17.20;;
64842;SDS011;51310;52.198;5.422;2022-09-24T08:39:38;23.52;;;16.08;;
64842;SDS011;51310;52.198;5.422;2022-09-24T08:45:16;27.02;;;17.30;;
64842;SDS011;51310;52.198;5.422;2022-09-24T08:50:46;30.83;;;17.73;;
64842;SDS011;51310;52.198;5.422;2022-09-24T08:54:08;28.05;;;17.45;;
64842;SDS011;51310;52.198;5.422;2022-09-24T08:56:39;29.10;;;18.50;;
64842;SDS011;51310;52.198;5.422;2022-09-24T08:59:29;31.60;;;19.50;;
64842;SDS011;51310;52.198;5.422;2022-09-24T09:07:52;29.10;;;17.92;;
64842;SDS011;51310;52.198;5.422;2022-09-24T09:10:39;30.73;;;18.08;;
64842;SDS011;51310;52.198;5.422;2022-09-24T09:13:24;30.20;;;17.08;;
64842;SDS011;51310;52.198;5.422;2022-09-24T09:16:02;29.52;;;16.80;;
64842;SDS011;51310;52.198;5.422;2022-09-24T09:18:40;28.52;;;16.95;;
64842;SDS011;51310;52.198;5.422;2022-09-24T09:21:23;30.05;;;17.52;;
64842;SDS011;51310;52.198;5.422;2022-09-24T09:24:16;26.65;;;17.20;;
64842;SDS011;51310;52.198;5.422;2022-09-24T09:26:57;26.93;;;16.17;;
64842;SDS011;51310;52.198;5.422;2022-09-24T09:29:24;26.13;;;16.48;;
64842;SDS011;51310;52.198;5.422;2022-09-24T09:34:56;24.75;;;14.73;;
64842;SDS011;51310;52.198;5.422;2022-09-24T09:44:11;21.93;;;12.60;;
64842;SDS011;51310;52.198;5.422;2022-09-24T09:47:11;23.50;;;12.73;;
64842;SDS011;51310;52.198;5.422;2022-09-24T09:52:56;20.90;;;11.55;;
64842;SDS011;51310;52.198;5.422;2022-09-24T09:55:23;17.83;;;11.23;;
64842;SDS011;51310;52.198;5.422;2022-09-24T09:58:08;18.77;;;10.55;;
64842;SDS011;51310;52.198;5.422;2022-09-24T10:00:42;15.90;;;9.73;;
64842;SDS011;51310;52.198;5.422;2022-09-24T10:05:57;12.00;;;7.30;;
64842;SDS011;51310;52.198;5.422;2022-09-24T10:08:28;12.32;;;7.70;;
64842;SDS011;51310;52.198;5.422;2022-09-24T10:10:54;14.23;;;8.60;;
64842;SDS011;51310;52.198;5.422;2022-09-24T10:13:24;13.73;;;7.75;;
64842;SDS011;51310;52.198;5.422;2022-09-24T10:15:52;13.48;;;7.35;;
64842;SDS011;51310;52.198;5.422;2022-09-24T10:18:29;13.50;;;7.63;;
64842;SDS011;51310;52.198;5.422;2022-09-24T10:21:07;16.35;;;7.82;;
64842;SDS011;51310;52.198;5.422;2022-09-24T10:23:43;13.90;;;8.07;;
64842;SDS011;51310;52.198;5.422;2022-09-24T10:26:12;14.80;;;7.55;;
64842;SDS011;51310;52.198;5.422;2022-09-24T10:28:46;16.70;;;8.47;;
64842;SDS011;51310;52.198;5.422;2022-09-24T10:31:36;15.38;;;8.88;;
64842;SDS011;51310;52.198;5.422;2022-09-24T10:34:16;15.37;;;8.73;;
64842;SDS011;51310;52.198;5.422;2022-09-24T10:37:10;16.75;;;8.80;;
64842;SDS011;51310;52.198;5.422;2022-09-24T10:39:40;14.45;;;8.05;;
64842;SDS011;51310;52.198;5.422;2022-09-24T10:42:23;20.63;;;9.38;;
64842;SDS011;51310;52.198;5.422;2022-09-24T10:44:52;18.33;;;8.93;;
64842;SDS011;51310;52.198;5.422;2022-09-24T10:47:26;22.30;;;9.32;;
64842;SDS011;51310;52.198;5.422;2022-09-24T10:53:24;25.30;;;10.68;;
64842;SDS011;51310;52.198;5.422;2022-09-24T10:56:58;23.52;;;10.45;;
64842;SDS011;51310;52.198;5.422;2022-09-24T11:30:13;22.50;;;9.18;;
64842;SDS011;51310;52.198;5.422;2022-09-24T11:35:55;17.60;;;9.13;;
64842;SDS011;51310;52.198;5.422;2022-09-24T11:41:38;20.77;;;9.95;;
64842;SDS011;51310;52.198;5.422;2022-09-24T11:44:33;26.00;;;9.65;;
64842;SDS011;51310;52.198;5.422;2022-09-24T11:54:12;19.05;;;8.60;;
64842;SDS011;51310;52.198;5.422;2022-09-24T11:57:45;20.00;;;8.73;;
64842;SDS011;51310;52.198;5.422;2022-09-24T12:00:48;22.52;;;8.80;;
64842;SDS011;51310;52.198;5.422;2022-09-24T12:03:48;20.42;;;8.73;;
64842;SDS011;51310;52.198;5.422;2022-09-24T12:06:39;20.00;;;9.05;;
64842;SDS011;51310;52.198;5.422;2022-09-24T12:14:48;18.92;;;8.70;;
64842;SDS011;51310;52.198;5.422;2022-09-24T12:17:53;20.88;;;8.95;;
64842;SDS011;51310;52.198;5.422;2022-09-24T12:20:27;23.95;;;9.65;;
64842;SDS011;51310;52.198;5.422;2022-09-24T12:23:08;23.50;;;9.52;;
64842;SDS011;51310;52.198;5.422;2022-09-24T12:25:42;25.75;;;9.93;;
64842;SDS011;51310;52.198;5.422;2022-09-24T12:28:12;20.48;;;9.15;;
64842;SDS011;51310;52.198;5.422;2022-09-24T12:31:03;15.33;;;9.20;;
64842;SDS011;51310;52.198;5.422;2022-09-24T12:34:13;17.73;;;8.52;;
64842;SDS011;51310;52.198;5.422;2022-09-24T12:37:14;20.13;;;8.52;;
64842;SDS011;51310;52.198;5.422;2022-09-24T12:42:37;17.00;;;8.15;;
64842;SDS011;51310;52.198;5.422;2022-09-24T12:45:13;17.85;;;9.10;;
64842;SDS011;51310;52.198;5.422;2022-09-24T12:47:48;24.50;;;8.65;;
64842;SDS011;51310;52.198;5.422;2022-09-24T12:50:40;19.10;;;8.73;;
64842;SDS011;51310;52.198;5.422;2022-09-24T12:53:21;21.52;;;7.28;;
64842;SDS011;51310;52.198;5.422;2022-09-24T12:55:56;20.70;;;8.82;;
64842;SDS011;51310;52.198;5.422;2022-09-24T12:58:26;17.35;;;7.57;;
64842;SDS011;51310;52.198;5.422;2022-09-24T13:01:13;17.38;;;7.20;;
64842;SDS011;51310;52.198;5.422;2022-09-24T13:06:39;10.80;;;5.07;;
64842;SDS011;51310;52.198;5.422;2022-09-24T13:14:40;11.05;;;6.68;;
64842;SDS011;51310;52.198;5.422;2022-09-24T13:17:27;13.02;;;5.70;;
64842;SDS011;51310;52.198;5.422;2022-09-24T13:20:03;10.65;;;5.82;;
64842;SDS011;51310;52.198;5.422;2022-09-24T13:22:34;14.15;;;6.07;;
64842;SDS011;51310;52.198;5.422;2022-09-24T13:27:35;11.55;;;6.70;;
64842;SDS011;51310;52.198;5.422;2022-09-24T13:33:03;10.77;;;5.10;;
64842;SDS011;51310;52.198;5.422;2022-09-24T13:35:54;14.13;;;6.50;;
64842;SDS011;51310;52.198;5.422;2022-09-24T13:39:23;14.75;;;5.70;;
64842;SDS011;51310;52.198;5.422;2022-09-24T13:44:52;16.50;;;5.80;;
64842;SDS011;51310;52.198;5.422;2022-09-24T13:50:25;20.05;;;6.05;;
64842;SDS011;51310;52.198;5.422;2022-09-24T13:55:45;13.35;;;5.47;;
64842;SDS011;51310;52.198;5.422;2022-09-24T14:01:01;15.02;;;4.80;;
64842;SDS011;51310;52.198;5.422;2022-09-24T14:03:39;15.93;;;5.20;;
64842;SDS011;51310;52.198;5.422;2022-09-24T14:06:16;12.00;;;4.20;;
64842;SDS011;51310;52.198;5.422;2022-09-24T14:09:01;14.55;;;4.65;;
64842;SDS011;51310;52.198;5.422;2022-09-24T14:11:38;11.20;;;4.20;;
64842;SDS011;51310;52.198;5.422;2022-09-24T14:14:15;13.20;;;3.58;;
64842;SDS011;51310;52.198;5.422;2022-09-24T14:16:49;12.48;;;3.53;;
64842;SDS011;51310;52.198;5.422;2022-09-24T14:19:19;17.17;;;4.30;;
64842;SDS011;51310;52.198;5.422;2022-09-24T14:21:53;12.80;;;4.90;;
64842;SDS011;51310;52.198;5.422;2022-09-24T14:24:23;8.95;;;3.97;;
64842;SDS011;51310;52.198;5.422;2022-09-24T14:27:13;16.92;;;4.40;;
64842;SDS011;51310;52.198;5.422;2022-09-24T14:29:56;10.60;;;3.50;;
64842;SDS011;51310;52.198;5.422;2022-09-24T14:32:28;11.95;;;3.72;;
64842;SDS011;51310;52.198;5.422;2022-09-24T14:35:00;13.07;;;3.08;;
64842;SDS011;51310;52.198;5.422;2022-09-24T14:37:37;14.27;;;3.23;;
64842;SDS011;51310;52.198;5.422;2022-09-24T14:40:15;12.02;;;3.13;;
64842;SDS011;51310;52.198;5.422;2022-09-24T14:42:52;9.60;;;2.28;;
64842;SDS011;51310;52.198;5.422;2022-09-24T14:48:02;9.10;;;1.83;;
64842;SDS011;51310;52.198;5.422;2022-09-24T14:50:52;4.95;;;1.50;;
64842;SDS011;51310;52.198;5.422;2022-09-24T14:53:32;9.55;;;1.58;;
64842;SDS011;51310;52.198;5.422;2022-09-24T14:56:17;7.60;;;1.80;;
64842;SDS011;51310;52.198;5.422;2022-09-24T14:58:45;6.68;;;1.63;;
64842;SDS011;51310;52.198;5.422;2022-09-24T15:01:12;14.03;;;1.77;;
64842;SDS011;51310;52.198;5.422;2022-09-24T15:03:43;9.40;;;2.33;;
64842;SDS011;51310;52.198;5.422;2022-09-24T15:06:20;8.13;;;1.88;;
64842;SDS011;51310;52.198;5.422;2022-09-24T15:08:55;7.05;;;1.67;;
64842;SDS011;51310;52.198;5.422;2022-09-24T15:11:32;5.97;;;1.92;;
64842;SDS011;51310;52.198;5.422;2022-09-24T15:14:18;10.95;;;2.28;;
64842;SDS011;51310;52.198;5.422;2022-09-24T15:17:06;7.78;;;1.50;;
64842;SDS011;51310;52.198;5.422;2022-09-24T15:19:55;9.45;;;2.30;;
64842;SDS011;51310;52.198;5.422;2022-09-24T15:22:25;7.15;;;2.38;;
64842;SDS011;51310;52.198;5.422;2022-09-24T15:24:54;7.55;;;1.60;;
64842;SDS011;51310;52.198;5.422;2022-09-24T15:27:23;9.02;;;2.05;;
64842;SDS011;51310;52.198;5.422;2022-09-24T15:29:54;8.73;;;1.55;;
64842;SDS011;51310;52.198;5.422;2022-09-24T15:32:23;9.68;;;2.25;;
64842;SDS011;51310;52.198;5.422;2022-09-24T15:34:53;9.20;;;2.03;;
64842;SDS011;51310;52.198;5.422;2022-09-24T15:37:24;9.02;;;2.40;;
64842;SDS011;51310;52.198;5.422;2022-09-24T15:39:57;12.33;;;1.97;;
64842;SDS011;51310;52.198;5.422;2022-09-24T15:42:31;9.70;;;2.15;;
64842;SDS011;51310;52.198;5.422;2022-09-24T15:44:57;9.07;;;1.67;;
64842;SDS011;51310;52.198;5.422;2022-09-24T15:47:23;8.05;;;1.90;;
64842;SDS011;51310;52.198;5.422;2022-09-24T15:49:49;6.43;;;2.42;;
64842;SDS011;51310;52.198;5.422;2022-09-24T15:54:54;15.65;;;1.92;;
64842;SDS011;51310;52.198;5.422;2022-09-24T15:57:25;7.97;;;1.50;;
64842;SDS011;51310;52.198;5.422;2022-09-24T15:59:51;11.32;;;2.10;;
64842;SDS011;51310;52.198;5.422;2022-09-24T16:04:56;11.63;;;1.83;;
64842;SDS011;51310;52.198;5.422;2022-09-24T16:07:25;9.60;;;1.83;;
64842;SDS011;51310;52.198;5.422;2022-09-24T16:09:52;4.95;;;1.48;;
64842;SDS011;51310;52.198;5.422;2022-09-24T16:12:18;9.80;;;2.45;;
64842;SDS011;51310;52.198;5.422;2022-09-24T16:14:45;9.68;;;1.83;;
64842;SDS011;51310;52.198;5.422;2022-09-24T16:17:11;10.13;;;1.90;;
64842;SDS011;51310;52.198;5.422;2022-09-24T16:19:37;6.22;;;1.40;;
64842;SDS011;51310;52.198;5.422;2022-09-24T16:22:03;6.43;;;1.63;;
64842;SDS011;51310;52.198;5.422;2022-09-24T16:24:33;8.65;;;1.80;;
64842;SDS011;51310;52.198;5.422;2022-09-24T16:26:59;7.37;;;1.70;;
64842;SDS011;51310;52.198;5.422;2022-09-24T16:29:26;6.97;;;2.08;;
64842;SDS011;51310;52.198;5.422;2022-09-24T16:31:52;6.82;;;2.13;;
64842;SDS011;51310;52.198;5.422;2022-09-24T16:34:17;10.45;;;1.85;;
64842;SDS011;51310;52.198;5.422;2022-09-24T16:36:43;6.78;;;1.70;;
64842;SDS011;51310;52.198;5.422;2022-09-24T16:39:09;6.15;;;1.40;;
64842;SDS011;51310;52.198;5.422;2022-09-24T16:41:35;5.18;;;1.13;;
64842;SDS011;51310;52.198;5.422;2022-09-24T16:44:02;7.95;;;1.35;;
64842;SDS011;51310;52.198;5.422;2022-09-24T16:46:29;8.20;;;1.70;;
64842;SDS011;51310;52.198;5.422;2022-09-24T16:48:55;5.43;;;1.70;;
64842;SDS011;51310;52.198;5.422;2022-09-24T16:51:21;9.95;;;1.80;;
64842;SDS011;51310;52.198;5.422;2022-09-24T16:53:52;6.72;;;1.90;;
64842;SDS011;51310;52.198;5.422;2022-09-24T16:56:21;4.97;;;1.20;;
64842;SDS011;51310;52.198;5.422;2022-09-24T16:58:48;6.45;;;1.67;;
64842;SDS011;51310;52.198;5.422;2022-09-24T17:01:18;8.90;;;1.08;;
64842;SDS011;51310;52.198;5.422;2022-09-24T17:03:52;6.40;;;1.42;;
64842;SDS011;51310;52.198;5.422;2022-09-24T17:06:22;8.57;;;1.38;;
64842;SDS011;51310;52.198;5.422;2022-09-24T17:08:54;8.93;;;0.98;;
64842;SDS011;51310;52.198;5.422;2022-09-24T17:11:39;6.13;;;1.20;;
64842;SDS011;51310;52.198;5.422;2022-09-24T17:14:06;6.57;;;1.25;;
64842;SDS011;51310;52.198;5.422;2022-09-24T17:16:36;8.68;;;1.33;;
64842;SDS011;51310;52.198;5.422;2022-09-24T17:19:06;5.05;;;1.40;;
64842;SDS011;51310;52.198;5.422;2022-09-24T17:21:34;9.07;;;1.35;;
64842;SDS011;51310;52.198;5.422;2022-09-24T17:24:04;7.43;;;1.50;;
64842;SDS011;51310;52.198;5.422;2022-09-24T17:26:31;5.40;;;1.23;;